createdAt,value
2022-12-03T00:03:35.763Z,53.10
2022-12-03T00:08:37.860Z,59.05
2022-12-03T00:13:41.174Z,43.70
2022-12-03T00:18:43.112Z,38.33
2022-12-03T00:23:45.094Z,45.55
2022-12-03T00:28:48.397Z,43.50
2022-12-03T00:33:50.547Z,52.70
2022-12-03T00:38:52.522Z,53.33
2022-12-03T00:43:57.642Z,49.42
2022-12-03T00:48:59.676Z,55.20
2022-12-03T00:54:01.652Z,58.60
2022-12-03T00:59:04.971Z,43.05
2022-12-03T01:04:06.874Z,53.38
2022-12-03T01:09:08.828Z,51.95
2022-12-03T01:14:13.927Z,52.75
2022-12-03T01:19:17.121Z,49.70
2022-12-03T01:24:19.671Z,48.92
2022-12-03T01:29:23.164Z,58.38
2022-12-03T01:34:25.092Z,51.00
2022-12-03T01:39:27.164Z,53.70
2022-12-03T01:44:32.266Z,44.50
2022-12-03T01:49:40.096Z,40.13
2022-12-03T01:54:46.454Z,49.08
2022-12-03T01:59:50.729Z,50.00
2022-12-03T02:09:59.812Z,38.63
2022-12-03T02:15:04.566Z,23.73
2022-12-03T02:20:08.793Z,24.92
2022-12-03T02:30:20.429Z,19.95
2022-12-03T02:35:24.730Z,39.33
2022-12-03T02:45:36.211Z,37.50
2022-12-03T02:50:41.442Z,44.15
2022-12-03T02:55:45.308Z,42.17
2022-12-03T03:00:49.308Z,31.25
2022-12-03T03:05:51.674Z,52.80
2022-12-03T03:10:56.137Z,47.95
2022-12-03T03:15:58.738Z,43.00
2022-12-03T03:21:01.366Z,55.88
2022-12-03T03:26:07.086Z,58.35
2022-12-03T03:31:12.591Z,48.72
2022-12-03T03:36:15.354Z,43.17
2022-12-03T03:41:20.700Z,37.92
2022-12-03T03:46:23.043Z,49.30
2022-12-03T03:51:25.436Z,42.85
2022-12-03T03:56:28.901Z,47.97
2022-12-03T04:01:31.270Z,51.78
2022-12-03T04:06:33.193Z,55.20
2022-12-03T04:11:55.165Z,52.72
2022-12-03T04:16:57.102Z,43.45
2022-12-03T04:22:17.908Z,40.35
2022-12-03T04:27:59.699Z,42.35
2022-12-03T04:33:20.329Z,32.50
2022-12-03T04:38:37.322Z,41.60
2022-12-03T04:44:00.546Z,52.88
2022-12-03T04:54:04.357Z,45.53
2022-12-03T04:59:12.715Z,35.47
2022-12-03T05:04:17.843Z,40.25
2022-12-03T05:09:19.783Z,39.08
2022-12-03T05:14:23.197Z,37.72
2022-12-03T05:19:45.071Z,29.45
2022-12-03T05:24:46.987Z,47.58
2022-12-03T05:29:50.215Z,35.95
2022-12-03T05:34:52.641Z,47.03
2022-12-03T05:39:54.853Z,48.95
2022-12-03T05:44:58.092Z,50.85
2022-12-03T05:50:00.002Z,29.42
2022-12-03T05:55:02.141Z,25.40
2022-12-03T06:00:11.323Z,38.05
2022-12-03T06:05:15.354Z,20.48
2022-12-03T06:10:20.618Z,30.10
2022-12-03T06:15:23.960Z,22.08
2022-12-03T06:20:26.028Z,24.92
2022-12-03T06:25:27.935Z,17.67
2022-12-03T06:30:31.214Z,15.68
2022-12-03T06:35:33.186Z,26.17
2022-12-03T06:40:35.122Z,30.90
2022-12-03T06:45:42.034Z,34.22
2022-12-03T06:50:46.489Z,19.38
2022-12-03T06:55:48.401Z,18.83
2022-12-03T07:00:51.712Z,15.00
2022-12-03T07:05:53.621Z,22.73
2022-12-03T07:10:55.596Z,12.32
2022-12-03T07:15:58.876Z,15.25
2022-12-03T07:21:00.836Z,19.33
2022-12-03T07:26:02.770Z,14.77
2022-12-03T07:31:06.215Z,19.77
2022-12-03T07:36:09.141Z,9.10
2022-12-03T07:41:11.104Z,17.63
2022-12-03T07:46:14.439Z,12.65
2022-12-03T07:51:16.494Z,13.10
2022-12-03T07:56:18.446Z,18.30
2022-12-03T08:01:21.765Z,19.98
2022-12-03T08:06:23.762Z,20.88
2022-12-03T08:11:29.023Z,21.27
2022-12-03T08:16:40.341Z,48.35
2022-12-03T08:21:43.443Z,42.80
2022-12-03T08:26:47.178Z,47.20
2022-12-03T08:31:54.756Z,51.67
2022-12-03T08:37:19.309Z,62.33
2022-12-03T08:42:43.102Z,63.78
2022-12-03T08:47:46.692Z,64.05
2022-12-03T08:52:48.921Z,66.10
2022-12-03T08:57:51.139Z,59.75
2022-12-03T09:02:59.511Z,64.82
2022-12-03T09:08:01.698Z,39.08
2022-12-03T09:13:03.753Z,57.75
2022-12-03T09:18:08.049Z,45.97
2022-12-03T09:23:10.032Z,64.38
2022-12-03T09:28:11.965Z,67.85
2022-12-03T09:33:15.237Z,65.90
2022-12-03T09:38:17.188Z,56.10
2022-12-03T09:43:19.777Z,62.90
2022-12-03T09:48:23.279Z,65.05
2022-12-03T09:53:27.311Z,58.22
2022-12-03T09:58:34.504Z,59.88
2022-12-03T10:03:43.085Z,68.55
2022-12-03T10:08:48.512Z,63.53
2022-12-03T10:13:51.164Z,35.90
2022-12-03T10:18:57.082Z,65.03
2022-12-03T10:24:22.687Z,53.67
2022-12-03T10:29:32.946Z,67.63
2022-12-03T10:34:39.608Z,64.35
2022-12-03T10:39:59.756Z,56.70
2022-12-03T10:45:12.883Z,64.88
2022-12-03T10:50:20.148Z,60.88
2022-12-03T10:55:22.221Z,68.93
2022-12-03T11:00:24.344Z,67.43
2022-12-03T11:05:28.603Z,56.63
2022-12-03T11:10:30.885Z,72.07
2022-12-03T11:15:43.882Z,65.50
2022-12-03T11:21:09.320Z,62.88
2022-12-03T11:26:17.101Z,65.43
2022-12-03T11:31:43.415Z,75.28
2022-12-03T11:37:18.981Z,62.47
2022-12-03T11:47:44.040Z,78.75
2022-12-03T11:52:48.760Z,72.50
2022-12-03T11:57:57.385Z,66.22
2022-12-03T12:02:59.643Z,37.65
2022-12-03T12:08:02.848Z,88.68
2022-12-03T12:13:06.960Z,80.95
2022-12-03T12:18:40.079Z,53.50
2022-12-03T12:23:42.510Z,57.58
2022-12-03T12:28:46.063Z,96.35
2022-12-03T12:33:48.234Z,70.05
2022-12-03T12:38:50.337Z,84.88
2022-12-03T12:43:53.838Z,50.90
2022-12-03T12:48:59.674Z,34.60
2022-12-03T12:54:02.196Z,76.65
2022-12-03T12:59:11.582Z,59.90
2022-12-03T13:04:15.681Z,73.45
2022-12-03T13:09:21.131Z,77.82
2022-12-03T13:14:26.144Z,75.55
2022-12-03T13:19:30.239Z,67.55
2022-12-03T13:24:35.841Z,58.05
2022-12-03T13:29:39.590Z,73.88
2022-12-03T13:34:42.713Z,72.60
2022-12-03T13:39:49.654Z,48.45
2022-12-03T13:44:53.789Z,80.82
2022-12-03T13:49:59.865Z,74.07
2022-12-03T13:55:07.033Z,96.10
2022-12-03T14:00:11.693Z,84.82
2022-12-03T14:05:15.356Z,74.47
2022-12-03T14:10:17.582Z,93.45
2022-12-03T14:15:26.373Z,82.57
2022-12-03T14:20:28.313Z,93.65
2022-12-03T14:25:30.234Z,71.05
2022-12-03T14:30:34.905Z,75.90
2022-12-03T14:35:39.963Z,76.78
2022-12-03T14:40:43.679Z,71.47
2022-12-03T14:45:47.017Z,72.90
2022-12-03T14:50:49.014Z,68.40
2022-12-03T14:55:55.908Z,59.25
2022-12-03T15:00:59.234Z,50.97
2022-12-03T15:06:01.167Z,91.00
2022-12-03T15:11:03.548Z,92.45
2022-12-03T15:16:07.610Z,97.53
2022-12-03T15:26:13.927Z,87.72
2022-12-03T15:31:17.286Z,104.60
2022-12-03T15:36:22.117Z,82.97
2022-12-03T15:41:28.951Z,66.53
2022-12-03T15:46:32.472Z,74.97
2022-12-03T16:02:15.311Z,58.42
2022-12-03T16:07:17.936Z,25.60
2022-12-03T16:12:22.917Z,19.40
2022-12-03T16:17:36.885Z,14.05
2022-12-03T16:23:03.269Z,16.27
2022-12-03T16:28:24.632Z,15.85
2022-12-03T16:33:28.267Z,22.08
2022-12-03T16:38:56.665Z,16.95
2022-12-03T16:44:07.297Z,76.63
2022-12-03T16:49:13.701Z,55.47
2022-12-03T16:54:16.074Z,59.08
2022-12-03T16:59:18.167Z,76.53
2022-12-03T17:04:21.623Z,65.20
2022-12-03T17:09:23.662Z,118.63
2022-12-03T17:14:31.453Z,81.35
2022-12-03T17:19:36.545Z,68.10
2022-12-03T17:24:38.647Z,38.38
2022-12-03T17:29:40.667Z,20.70
2022-12-03T17:34:44.043Z,17.65
2022-12-03T17:39:46.026Z,35.38
2022-12-03T17:44:48.000Z,106.90
2022-12-03T17:49:51.511Z,65.13
2022-12-03T17:55:12.814Z,36.78
2022-12-03T18:00:16.069Z,24.33
2022-12-03T18:05:19.597Z,52.50
2022-12-03T18:10:22.583Z,44.78
2022-12-03T18:15:24.520Z,95.32
2022-12-03T18:20:28.007Z,155.85
2022-12-03T18:25:30.743Z,131.35
2022-12-03T18:30:32.734Z,138.60
2022-12-03T18:35:36.178Z,132.52
2022-12-03T18:40:38.530Z,130.98
2022-12-03T18:45:41.019Z,137.23
2022-12-03T18:50:44.960Z,138.60
2022-12-03T18:55:47.202Z,110.40
2022-12-03T19:00:49.178Z,162.40
2022-12-03T19:05:52.753Z,136.38
2022-12-03T19:10:56.727Z,166.23
2022-12-03T19:16:01.828Z,142.93
2022-12-03T19:21:07.988Z,113.40
2022-12-03T19:26:12.323Z,78.43
2022-12-03T19:31:16.636Z,100.32
2022-12-03T19:36:23.060Z,130.85
2022-12-03T19:41:27.414Z,143.30
2022-12-03T19:46:30.279Z,60.00
2022-12-03T19:51:35.360Z,70.80
2022-12-03T19:56:37.518Z,48.92
2022-12-03T20:01:40.808Z,111.95
2022-12-03T20:06:45.346Z,104.15
2022-12-03T20:11:51.153Z,98.15
2022-12-03T20:16:53.203Z,55.38
2022-12-03T20:22:02.353Z,79.82
2022-12-03T20:27:04.904Z,119.18
2022-12-03T20:32:07.119Z,82.55
2022-12-03T20:37:10.522Z,101.45
2022-12-03T20:42:12.432Z,73.75
2022-12-03T20:47:15.333Z,63.95
2022-12-03T20:52:18.613Z,52.80
2022-12-03T20:57:20.576Z,44.78
2022-12-03T21:02:22.655Z,31.00
2022-12-03T21:07:26.246Z,23.67
2022-12-03T21:12:30.901Z,33.05
2022-12-03T21:17:33.517Z,13.02
2022-12-03T21:22:36.980Z,12.23
2022-12-03T21:27:38.927Z,44.05
2022-12-03T21:32:40.878Z,54.15
2022-12-03T21:37:44.215Z,29.55
2022-12-03T21:42:46.382Z,64.57
2022-12-03T21:47:48.513Z,60.25
2022-12-03T21:52:52.704Z,41.75
2022-12-03T21:57:54.660Z,35.78
2022-12-03T22:02:56.656Z,49.92
2022-12-03T22:08:00.005Z,51.58
2022-12-03T22:13:02.259Z,59.75
2022-12-03T22:18:04.766Z,92.28
2022-12-03T22:23:08.127Z,123.30
2022-12-03T22:28:10.039Z,154.95
2022-12-03T22:33:12.001Z,180.63
2022-12-03T22:38:15.285Z,181.48
2022-12-03T22:43:17.363Z,164.32
2022-12-03T22:48:19.270Z,162.20
2022-12-03T22:53:22.556Z,159.60
2022-12-03T22:58:25.337Z,171.10
2022-12-03T23:03:27.293Z,172.85
2022-12-03T23:08:30.630Z,186.02
2022-12-03T23:13:32.647Z,159.82
2022-12-03T23:18:34.643Z,178.88
2022-12-03T23:23:38.069Z,159.65
2022-12-03T23:28:41.907Z,155.95
2022-12-03T23:33:43.990Z,154.00
2022-12-03T23:38:47.360Z,151.98
2022-12-03T23:43:49.596Z,141.48
2022-12-03T23:48:52.032Z,155.52
2022-12-03T23:53:56.429Z,149.57
2022-12-03T23:58:58.815Z,169.77
